sensor_id;sensor_type;location;lat;lon;timestamp;temperature;humidity
9225;DHT22;4647;48.072;11.616;2022-12-07T00:01:25;2.70;99.90
9225;DHT22;4647;48.072;11.616;2022-12-07T00:03:55;2.60;99.90
9225;DHT22;4647;48.072;11.616;2022-12-07T00:06:26;2.60;99.90
9225;DHT22;4647;48.072;11.616;2022-12-07T00:08:53;2.60;99.90
9225;DHT22;4647;48.072;11.616;2022-12-07T00:11:21;2.70;99.90
9225;DHT22;4647;48.072;11.616;2022-12-07T00:13:51;2.70;99.90
9225;DHT22;4647;48.072;11.616;2022-12-07T00:16:20;2.60;99.90
9225;DHT22;4647;48.072;11.616;2022-12-07T00:18:48;2.60;99.90
9225;DHT22;4647;48.072;11.616;2022-12-07T00:21:17;2.60;99.90
9225;DHT22;4647;48.072;11.616;2022-12-07T00:23:45;2.60;99.90
9225;DHT22;4647;48.072;11.616;2022-12-07T00:26:14;2.60;99.90
9225;DHT22;4647;48.072;11.616;2022-12-07T00:28:44;2.60;99.90
9225;DHT22;4647;48.072;11.616;2022-12-07T00:31:13;2.60;99.90
9225;DHT22;4647;48.072;11.616;2022-12-07T00:33:40;2.60;99.90
9225;DHT22;4647;48.072;11.616;2022-12-07T00:36:09;2.50;99.90
9225;DHT22;4647;48.072;11.616;2022-12-07T00:38:38;2.60;99.90
9225;DHT22;4647;48.072;11.616;2022-12-07T00:41:08;2.60;99.90
9225;DHT22;4647;48.072;11.616;2022-12-07T00:43:36;2.60;99.90
9225;DHT22;4647;48.072;11.616;2022-12-07T00:46:02;2.50;99.90
9225;DHT22;4647;48.072;11.616;2022-12-07T00:48:30;2.50;99.90
9225;DHT22;4647;48.072;11.616;2022-12-07T00:50:57;2.50;99.90
9225;DHT22;4647;48.072;11.616;2022-12-07T00:53:25;2.50;99.90
9225;DHT22;4647;48.072;11.616;2022-12-07T00:55:53;2.50;99.90
9225;DHT22;4647;48.072;11.616;2022-12-07T00:58:21;2.40;99.90
9225;DHT22;4647;48.072;11.616;2022-12-07T01:00:48;2.40;99.90
9225;DHT22;4647;48.072;11.616;2022-12-07T01:03:16;2.40;99.90
9225;DHT22;4647;48.072;11.616;2022-12-07T01:05:49;2.40;99.90
9225;DHT22;4647;48.072;11.616;2022-12-07T01:08:16;2.40;99.90
9225;DHT22;4647;48.072;11.616;2022-12-07T01:10:43;2.50;99.90
9225;DHT22;4647;48.072;11.616;2022-12-07T01:13:12;2.40;99.90
9225;DHT22;4647;48.072;11.616;2022-12-07T01:15:39;2.50;99.90
9225;DHT22;4647;48.072;11.616;2022-12-07T01:18:06;2.50;99.90
9225;DHT22;4647;48.072;11.616;2022-12-07T01:20:33;2.60;99.90
9225;DHT22;4647;48.072;11.616;2022-12-07T01:23:02;2.50;99.90
9225;DHT22;4647;48.072;11.616;2022-12-07T01:25:29;2.50;99.90
9225;DHT22;4647;48.072;11.616;2022-12-07T01:27:56;2.50;99.90
9225;DHT22;4647;48.072;11.616;2022-12-07T01:30:24;2.40;99.90
9225;DHT22;4647;48.072;11.616;2022-12-07T01:32:51;2.50;99.90
9225;DHT22;4647;48.072;11.616;2022-12-07T01:35:18;2.50;99.90
9225;DHT22;4647;48.072;11.616;2022-12-07T01:37:45;2.40;99.90
9225;DHT22;4647;48.072;11.616;2022-12-07T01:40:12;2.40;99.90
9225;DHT22;4647;48.072;11.616;2022-12-07T01:42:39;2.50;99.90
9225;DHT22;4647;48.072;11.616;2022-12-07T01:45:37;2.50;99.90
9225;DHT22;4647;48.072;11.616;2022-12-07T01:48:05;2.50;99.90
9225;DHT22;4647;48.072;11.616;2022-12-07T01:50:35;2.50;99.90
9225;DHT22;4647;48.072;11.616;2022-12-07T01:53:04;2.50;99.90
9225;DHT22;4647;48.072;11.616;2022-12-07T01:55:34;2.50;99.90
9225;DHT22;4647;48.072;11.616;2022-12-07T01:58:02;2.50;99.90
9225;DHT22;4647;48.072;11.616;2022-12-07T02:00:30;2.40;99.90
9225;DHT22;4647;48.072;11.616;2022-12-07T02:03:03;2.40;99.90
9225;DHT22;4647;48.072;11.616;2022-12-07T02:05:32;2.30;99.90
9225;DHT22;4647;48.072;11.616;2022-12-07T02:08:00;2.40;99.90
9225;DHT22;4647;48.072;11.616;2022-12-07T02:10:30;2.40;99.90
9225;DHT22;4647;48.072;11.616;2022-12-07T02:12:59;2.40;99.90
9225;DHT22;4647;48.072;11.616;2022-12-07T02:15:36;2.30;99.90
9225;DHT22;4647;48.072;11.616;2022-12-07T02:18:11;2.30;99.90
9225;DHT22;4647;48.072;11.616;2022-12-07T02:20:43;2.30;99.90
9225;DHT22;4647;48.072;11.616;2022-12-07T02:23:34;2.40;99.90
9225;DHT22;4647;48.072;11.616;2022-12-07T02:26:43;2.40;99.90
9225;DHT22;4647;48.072;11.616;2022-12-07T02:29:21;2.30;99.90
9225;DHT22;4647;48.072;11.616;2022-12-07T02:31:56;2.40;99.90
9225;DHT22;4647;48.072;11.616;2022-12-07T02:34:32;2.30;99.90
9225;DHT22;4647;48.072;11.616;2022-12-07T02:37:05;2.30;99.90
9225;DHT22;4647;48.072;11.616;2022-12-07T02:39:42;2.30;99.90
9225;DHT22;4647;48.072;11.616;2022-12-07T02:42:15;2.30;99.90
9225;DHT22;4647;48.072;11.616;2022-12-07T02:44:45;2.20;99.90
9225;DHT22;4647;48.072;11.616;2022-12-07T02:47:15;2.30;99.90
9225;DHT22;4647;48.072;11.616;2022-12-07T02:49:43;2.30;99.90
9225;DHT22;4647;48.072;11.616;2022-12-07T02:52:10;2.20;99.90
9225;DHT22;4647;48.072;11.616;2022-12-07T02:54:37;2.20;99.90
9225;DHT22;4647;48.072;11.616;2022-12-07T02:57:14;2.30;99.90
9225;DHT22;4647;48.072;11.616;2022-12-07T02:59:56;2.40;99.90
9225;DHT22;4647;48.072;11.616;2022-12-07T03:02:31;2.40;99.90
9225;DHT22;4647;48.072;11.616;2022-12-07T03:05:12;2.40;99.90
9225;DHT22;4647;48.072;11.616;2022-12-07T03:07:45;2.50;99.90
9225;DHT22;4647;48.072;11.616;2022-12-07T03:10:18;2.50;99.90
9225;DHT22;4647;48.072;11.616;2022-12-07T03:12:52;2.50;99.90
9225;DHT22;4647;48.072;11.616;2022-12-07T03:15:29;2.50;99.90
9225;DHT22;4647;48.072;11.616;2022-12-07T03:17:59;2.50;99.90
9225;DHT22;4647;48.072;11.616;2022-12-07T03:20:27;2.40;99.90
9225;DHT22;4647;48.072;11.616;2022-12-07T03:22:56;2.50;99.90
9225;DHT22;4647;48.072;11.616;2022-12-07T03:25:26;2.60;99.90
9225;DHT22;4647;48.072;11.616;2022-12-07T03:27:55;2.60;99.90
9225;DHT22;4647;48.072;11.616;2022-12-07T03:30:28;2.50;99.90
9225;DHT22;4647;48.072;11.616;2022-12-07T03:32:59;2.50;99.90
9225;DHT22;4647;48.072;11.616;2022-12-07T03:35:31;2.50;99.90
9225;DHT22;4647;48.072;11.616;2022-12-07T03:38:04;2.40;99.90
9225;DHT22;4647;48.072;11.616;2022-12-07T03:40:39;2.40;99.90
9225;DHT22;4647;48.072;11.616;2022-12-07T03:43:07;2.40;99.90
9225;DHT22;4647;48.072;11.616;2022-12-07T03:45:38;2.40;99.90
9225;DHT22;4647;48.072;11.616;2022-12-07T03:48:09;2.50;99.90
9225;DHT22;4647;48.072;11.616;2022-12-07T03:50:42;2.50;99.90
9225;DHT22;4647;48.072;11.616;2022-12-07T03:53:14;2.50;99.90
9225;DHT22;4647;48.072;11.616;2022-12-07T03:55:44;2.60;99.90
9225;DHT22;4647;48.072;11.616;2022-12-07T03:58:15;2.50;99.90
9225;DHT22;4647;48.072;11.616;2022-12-07T04:00:45;2.60;99.90
9225;DHT22;4647;48.072;11.616;2022-12-07T04:03:12;2.60;99.90
9225;DHT22;4647;48.072;11.616;2022-12-07T04:05:39;2.60;99.90
9225;DHT22;4647;48.072;11.616;2022-12-07T04:08:06;2.60;99.90
9225;DHT22;4647;48.072;11.616;2022-12-07T04:10:33;2.60;99.90
9225;DHT22;4647;48.072;11.616;2022-12-07T04:13:00;2.50;99.90
9225;DHT22;4647;48.072;11.616;2022-12-07T04:15:27;2.50;99.90
9225;DHT22;4647;48.072;11.616;2022-12-07T04:17:55;2.50;99.90
9225;DHT22;4647;48.072;11.616;2022-12-07T04:20:24;2.50;99.90
9225;DHT22;4647;48.072;11.616;2022-12-07T04:22:50;2.50;99.90
9225;DHT22;4647;48.072;11.616;2022-12-07T04:25:17;2.30;99.90
9225;DHT22;4647;48.072;11.616;2022-12-07T04:27:44;2.30;99.90
9225;DHT22;4647;48.072;11.616;2022-12-07T04:30:11;2.20;99.90
9225;DHT22;4647;48.072;11.616;2022-12-07T04:32:38;2.20;99.90
9225;DHT22;4647;48.072;11.616;2022-12-07T04:35:07;2.20;99.90
9225;DHT22;4647;48.072;11.616;2022-12-07T04:37:34;2.10;99.90
9225;DHT22;4647;48.072;11.616;2022-12-07T04:40:01;2.10;99.90
9225;DHT22;4647;48.072;11.616;2022-12-07T04:42:28;2.20;99.90
9225;DHT22;4647;48.072;11.616;2022-12-07T04:44:55;2.20;99.90
9225;DHT22;4647;48.072;11.616;2022-12-07T04:47:22;2.20;99.90
9225;DHT22;4647;48.072;11.616;2022-12-07T04:49:48;2.10;99.90
9225;DHT22;4647;48.072;11.616;2022-12-07T04:52:16;2.10;99.90
9225;DHT22;4647;48.072;11.616;2022-12-07T04:54:43;2.00;99.90
9225;DHT22;4647;48.072;11.616;2022-12-07T04:57:10;2.10;99.90
9225;DHT22;4647;48.072;11.616;2022-12-07T04:59:37;2.00;99.90
9225;DHT22;4647;48.072;11.616;2022-12-07T05:02:04;2.00;99.90
9225;DHT22;4647;48.072;11.616;2022-12-07T05:04:31;1.90;99.90
9225;DHT22;4647;48.072;11.616;2022-12-07T05:06:57;1.90;99.90
9225;DHT22;4647;48.072;11.616;2022-12-07T05:09:26;1.90;99.90
9225;DHT22;4647;48.072;11.616;2022-12-07T05:11:52;1.90;99.90
9225;DHT22;4647;48.072;11.616;2022-12-07T05:14:20;1.90;99.90
9225;DHT22;4647;48.072;11.616;2022-12-07T05:16:49;1.90;99.90
9225;DHT22;4647;48.072;11.616;2022-12-07T05:19:17;1.90;99.90
9225;DHT22;4647;48.072;11.616;2022-12-07T05:21:44;1.90;99.90
9225;DHT22;4647;48.072;11.616;2022-12-07T05:24:12;1.90;99.90
9225;DHT22;4647;48.072;11.616;2022-12-07T05:26:42;1.80;99.90
9225;DHT22;4647;48.072;11.616;2022-12-07T05:29:11;1.80;99.90
9225;DHT22;4647;48.072;11.616;2022-12-07T05:31:38;1.80;99.90
9225;DHT22;4647;48.072;11.616;2022-12-07T05:34:05;1.80;99.90
9225;DHT22;4647;48.072;11.616;2022-12-07T05:36:32;1.80;99.90
9225;DHT22;4647;48.072;11.616;2022-12-07T05:38:59;1.80;99.90
9225;DHT22;4647;48.072;11.616;2022-12-07T05:41:26;1.80;99.90
9225;DHT22;4647;48.072;11.616;2022-12-07T05:44:11;1.70;99.90
9225;DHT22;4647;48.072;11.616;2022-12-07T05:46:38;1.80;99.90
9225;DHT22;4647;48.072;11.616;2022-12-07T05:49:05;1.70;99.90
9225;DHT22;4647;48.072;11.616;2022-12-07T05:51:32;1.80;99.90
9225;DHT22;4647;48.072;11.616;2022-12-07T05:53:59;1.70;99.90
9225;DHT22;4647;48.072;11.616;2022-12-07T05:56:26;1.70;99.90
9225;DHT22;4647;48.072;11.616;2022-12-07T05:58:53;1.70;99.90
9225;DHT22;4647;48.072;11.616;2022-12-07T06:01:39;1.60;99.90
9225;DHT22;4647;48.072;11.616;2022-12-07T06:04:06;1.70;99.90
9225;DHT22;4647;48.072;11.616;2022-12-07T06:06:32;1.70;99.90
9225;DHT22;4647;48.072;11.616;2022-12-07T06:08:59;1.70;99.90
9225;DHT22;4647;48.072;11.616;2022-12-07T06:11:26;1.80;99.90
9225;DHT22;4647;48.072;11.616;2022-12-07T06:14:10;1.80;99.90
9225;DHT22;4647;48.072;11.616;2022-12-07T06:16:39;1.70;99.90
9225;DHT22;4647;48.072;11.616;2022-12-07T06:19:06;1.70;99.90
9225;DHT22;4647;48.072;11.616;2022-12-07T06:21:32;1.70;99.90
9225;DHT22;4647;48.072;11.616;2022-12-07T06:23:59;1.60;99.90
9225;DHT22;4647;48.072;11.616;2022-12-07T06:26:26;1.60;99.90
9225;DHT22;4647;48.072;11.616;2022-12-07T06:31:25;1.60;99.90
9225;DHT22;4647;48.072;11.616;2022-12-07T06:33:57;1.60;99.90
9225;DHT22;4647;48.072;11.616;2022-12-07T06:36:24;1.60;99.90
9225;DHT22;4647;48.072;11.616;2022-12-07T06:38:51;1.60;99.90
9225;DHT22;4647;48.072;11.616;2022-12-07T06:41:17;1.50;99.90
9225;DHT22;4647;48.072;11.616;2022-12-07T06:43:44;1.50;99.90
9225;DHT22;4647;48.072;11.616;2022-12-07T06:46:11;1.50;99.90
9225;DHT22;4647;48.072;11.616;2022-12-07T06:48:38;1.60;99.90
9225;DHT22;4647;48.072;11.616;2022-12-07T06:51:07;1.70;99.90
9225;DHT22;4647;48.072;11.616;2022-12-07T06:53:34;1.70;99.90
9225;DHT22;4647;48.072;11.616;2022-12-07T06:56:01;1.70;99.90
9225;DHT22;4647;48.072;11.616;2022-12-07T06:58:28;1.70;99.90
9225;DHT22;4647;48.072;11.616;2022-12-07T07:00:54;1.70;99.90
9225;DHT22;4647;48.072;11.616;2022-12-07T07:03:21;1.70;99.90
9225;DHT22;4647;48.072;11.616;2022-12-07T07:05:48;1.80;99.90
9225;DHT22;4647;48.072;11.616;2022-12-07T07:08:16;1.90;99.90
9225;DHT22;4647;48.072;11.616;2022-12-07T07:10:43;1.90;99.90
9225;DHT22;4647;48.072;11.616;2022-12-07T07:13:10;1.90;99.90
9225;DHT22;4647;48.072;11.616;2022-12-07T07:15:38;1.90;99.90
9225;DHT22;4647;48.072;11.616;2022-12-07T07:18:05;1.80;99.90
9225;DHT22;4647;48.072;11.616;2022-12-07T07:20:32;1.90;99.90
9225;DHT22;4647;48.072;11.616;2022-12-07T07:22:58;1.90;99.90
9225;DHT22;4647;48.072;11.616;2022-12-07T07:25:27;1.90;99.90
9225;DHT22;4647;48.072;11.616;2022-12-07T07:27:54;1.90;99.90
9225;DHT22;4647;48.072;11.616;2022-12-07T07:30:20;1.90;99.90
9225;DHT22;4647;48.072;11.616;2022-12-07T07:32:47;1.90;99.90
9225;DHT22;4647;48.072;11.616;2022-12-07T07:35:14;1.90;99.90
9225;DHT22;4647;48.072;11.616;2022-12-07T07:37:41;1.80;99.90
9225;DHT22;4647;48.072;11.616;2022-12-07T07:40:09;1.90;99.90
9225;DHT22;4647;48.072;11.616;2022-12-07T07:42:38;1.90;99.90
9225;DHT22;4647;48.072;11.616;2022-12-07T07:45:05;1.90;99.90
9225;DHT22;4647;48.072;11.616;2022-12-07T07:47:32;1.90;99.90
9225;DHT22;4647;48.072;11.616;2022-12-07T07:49:59;1.90;99.90
9225;DHT22;4647;48.072;11.616;2022-12-07T07:52:26;1.90;99.90
9225;DHT22;4647;48.072;11.616;2022-12-07T07:54:53;1.90;99.90
9225;DHT22;4647;48.072;11.616;2022-12-07T07:57:20;1.90;99.90
9225;DHT22;4647;48.072;11.616;2022-12-07T07:59:48;1.90;99.90
9225;DHT22;4647;48.072;11.616;2022-12-07T08:02:16;2.00;99.90
9225;DHT22;4647;48.072;11.616;2022-12-07T08:04:44;1.90;99.90
9225;DHT22;4647;48.072;11.616;2022-12-07T08:07:12;1.90;99.90
9225;DHT22;4647;48.072;11.616;2022-12-07T08:09:39;2.00;99.90
9225;DHT22;4647;48.072;11.616;2022-12-07T08:12:06;2.00;99.90
9225;DHT22;4647;48.072;11.616;2022-12-07T08:14:33;2.10;99.90
9225;DHT22;4647;48.072;11.616;2022-12-07T08:17:02;2.10;99.90
9225;DHT22;4647;48.072;11.616;2022-12-07T08:19:29;2.10;99.90
9225;DHT22;4647;48.072;11.616;2022-12-07T08:21:56;2.20;99.90
9225;DHT22;4647;48.072;11.616;2022-12-07T08:24:23;2.30;99.90
9225;DHT22;4647;48.072;11.616;2022-12-07T08:26:50;2.30;99.90
9225;DHT22;4647;48.072;11.616;2022-12-07T08:29:18;2.40;99.90
9225;DHT22;4647;48.072;11.616;2022-12-07T08:31:45;2.40;99.90
9225;DHT22;4647;48.072;11.616;2022-12-07T08:34:13;2.40;99.90
9225;DHT22;4647;48.072;11.616;2022-12-07T08:36:40;2.30;99.90
9225;DHT22;4647;48.072;11.616;2022-12-07T08:39:07;2.40;99.90
9225;DHT22;4647;48.072;11.616;2022-12-07T08:41:34;2.40;99.90
9225;DHT22;4647;48.072;11.616;2022-12-07T08:44:01;2.40;99.90
9225;DHT22;4647;48.072;11.616;2022-12-07T08:46:31;2.40;99.90
9225;DHT22;4647;48.072;11.616;2022-12-07T08:49:04;2.40;99.90
9225;DHT22;4647;48.072;11.616;2022-12-07T08:51:33;2.50;99.90
9225;DHT22;4647;48.072;11.616;2022-12-07T08:54:02;2.50;99.90
9225;DHT22;4647;48.072;11.616;2022-12-07T08:56:30;2.50;99.90
9225;DHT22;4647;48.072;11.616;2022-12-07T08:58:57;2.70;99.90
9225;DHT22;4647;48.072;11.616;2022-12-07T09:01:24;2.70;99.90
9225;DHT22;4647;48.072;11.616;2022-12-07T09:03:52;2.60;99.90
9225;DHT22;4647;48.072;11.616;2022-12-07T09:06:19;2.70;99.90
9225;DHT22;4647;48.072;11.616;2022-12-07T09:08:49;2.70;99.90
9225;DHT22;4647;48.072;11.616;2022-12-07T09:11:17;2.80;99.90
9225;DHT22;4647;48.072;11.616;2022-12-07T09:13:44;2.80;99.90
9225;DHT22;4647;48.072;11.616;2022-12-07T09:16:11;2.90;99.90
9225;DHT22;4647;48.072;11.616;2022-12-07T09:18:38;2.90;99.90
9225;DHT22;4647;48.072;11.616;2022-12-07T09:21:05;2.90;99.90
9225;DHT22;4647;48.072;11.616;2022-12-07T09:23:32;3.00;99.90
9225;DHT22;4647;48.072;11.616;2022-12-07T09:26:00;3.10;99.90
9225;DHT22;4647;48.072;11.616;2022-12-07T09:28:27;3.10;99.90
9225;DHT22;4647;48.072;11.616;2022-12-07T09:30:54;3.20;99.90
9225;DHT22;4647;48.072;11.616;2022-12-07T09:33:21;3.30;99.90
9225;DHT22;4647;48.072;11.616;2022-12-07T09:35:49;3.30;99.90
9225;DHT22;4647;48.072;11.616;2022-12-07T09:38:17;3.30;99.90
9225;DHT22;4647;48.072;11.616;2022-12-07T09:40:44;3.50;99.90
9225;DHT22;4647;48.072;11.616;2022-12-07T09:43:15;3.50;99.90
9225;DHT22;4647;48.072;11.616;2022-12-07T09:45:44;3.50;99.90
9225;DHT22;4647;48.072;11.616;2022-12-07T09:48:17;3.60;99.90
9225;DHT22;4647;48.072;11.616;2022-12-07T09:50:45;3.60;99.90
9225;DHT22;4647;48.072;11.616;2022-12-07T09:53:16;3.60;99.90
9225;DHT22;4647;48.072;11.616;2022-12-07T09:55:46;3.70;99.90
9225;DHT22;4647;48.072;11.616;2022-12-07T09:58:20;3.60;99.90
9225;DHT22;4647;48.072;11.616;2022-12-07T10:00:47;3.70;99.90
9225;DHT22;4647;48.072;11.616;2022-12-07T10:03:14;3.70;99.90
9225;DHT22;4647;48.072;11.616;2022-12-07T10:05:45;3.70;99.90
9225;DHT22;4647;48.072;11.616;2022-12-07T10:08:13;3.70;99.90
9225;DHT22;4647;48.072;11.616;2022-12-07T10:10:41;3.80;99.90
9225;DHT22;4647;48.072;11.616;2022-12-07T10:13:10;3.80;99.90
9225;DHT22;4647;48.072;11.616;2022-12-07T10:15:47;3.80;99.90
9225;DHT22;4647;48.072;11.616;2022-12-07T10:18:20;3.80;99.90
9225;DHT22;4647;48.072;11.616;2022-12-07T10:20:48;3.80;99.90
9225;DHT22;4647;48.072;11.616;2022-12-07T10:23:16;3.70;99.90
9225;DHT22;4647;48.072;11.616;2022-12-07T10:25:44;3.80;99.90
9225;DHT22;4647;48.072;11.616;2022-12-07T10:28:15;3.80;99.90
9225;DHT22;4647;48.072;11.616;2022-12-07T10:30:59;3.90;99.90
9225;DHT22;4647;48.072;11.616;2022-12-07T10:33:35;3.80;99.90
9225;DHT22;4647;48.072;11.616;2022-12-07T10:36:17;3.90;99.90
9225;DHT22;4647;48.072;11.616;2022-12-07T10:38:47;3.90;99.90
9225;DHT22;4647;48.072;11.616;2022-12-07T10:41:14;4.00;99.90
9225;DHT22;4647;48.072;11.616;2022-12-07T10:43:52;4.10;99.90
9225;DHT22;4647;48.072;11.616;2022-12-07T10:52:48;3.90;99.90
9225;DHT22;4647;48.072;11.616;2022-12-07T10:55:23;3.90;99.90
9225;DHT22;4647;48.072;11.616;2022-12-07T10:58:15;3.90;99.90
9225;DHT22;4647;48.072;11.616;2022-12-07T11:00:51;3.90;99.90
9225;DHT22;4647;48.072;11.616;2022-12-07T11:03:30;3.80;99.90
9225;DHT22;4647;48.072;11.616;2022-12-07T11:06:08;3.70;99.90
9225;DHT22;4647;48.072;11.616;2022-12-07T11:08:50;3.60;99.90
9225;DHT22;4647;48.072;11.616;2022-12-07T11:11:25;3.60;99.90
9225;DHT22;4647;48.072;11.616;2022-12-07T11:13:56;3.60;99.90
9225;DHT22;4647;48.072;11.616;2022-12-07T11:16:38;3.50;99.90
9225;DHT22;4647;48.072;11.616;2022-12-07T11:19:17;3.40;99.90
9225;DHT22;4647;48.072;11.616;2022-12-07T11:21:55;3.40;99.90
9225;DHT22;4647;48.072;11.616;2022-12-07T11:24:27;3.50;99.90
9225;DHT22;4647;48.072;11.616;2022-12-07T11:27:07;3.50;99.90
9225;DHT22;4647;48.072;11.616;2022-12-07T11:30:03;3.50;99.90
9225;DHT22;4647;48.072;11.616;2022-12-07T11:35:31;3.50;99.90
9225;DHT22;4647;48.072;11.616;2022-12-07T11:38:07;3.60;99.90
9225;DHT22;4647;48.072;11.616;2022-12-07T11:40:35;3.60;99.90
9225;DHT22;4647;48.072;11.616;2022-12-07T11:43:09;3.70;99.90
9225;DHT22;4647;48.072;11.616;2022-12-07T11:45:42;3.70;99.90
9225;DHT22;4647;48.072;11.616;2022-12-07T11:48:15;3.80;99.90
9225;DHT22;4647;48.072;11.616;2022-12-07T11:50:48;3.90;99.90
9225;DHT22;4647;48.072;11.616;2022-12-07T11:53:20;4.00;99.90
9225;DHT22;4647;48.072;11.616;2022-12-07T11:55:52;4.20;99.90
9225;DHT22;4647;48.072;11.616;2022-12-07T11:58:42;4.30;99.90
9225;DHT22;4647;48.072;11.616;2022-12-07T12:01:28;4.30;99.90
9225;DHT22;4647;48.072;11.616;2022-12-07T12:04:11;4.40;99.90
9225;DHT22;4647;48.072;11.616;2022-12-07T12:06:44;4.30;99.90
9225;DHT22;4647;48.072;11.616;2022-12-07T12:09:14;4.30;99.90
9225;DHT22;4647;48.072;11.616;2022-12-07T12:11:54;4.30;99.90
9225;DHT22;4647;48.072;11.616;2022-12-07T12:14:41;4.30;99.90
9225;DHT22;4647;48.072;11.616;2022-12-07T12:17:46;4.30;99.90
9225;DHT22;4647;48.072;11.616;2022-12-07T12:20:20;4.40;99.90
9225;DHT22;4647;48.072;11.616;2022-12-07T12:22:52;4.50;99.90
9225;DHT22;4647;48.072;11.616;2022-12-07T12:25:23;4.50;99.90
9225;DHT22;4647;48.072;11.616;2022-12-07T12:27:52;4.60;99.90
9225;DHT22;4647;48.072;11.616;2022-12-07T12:30:29;4.70;99.90
9225;DHT22;4647;48.072;11.616;2022-12-07T12:33:03;4.70;99.90
9225;DHT22;4647;48.072;11.616;2022-12-07T12:35:32;4.60;99.90
9225;DHT22;4647;48.072;11.616;2022-12-07T12:38:26;4.40;99.90
9225;DHT22;4647;48.072;11.616;2022-12-07T12:40:56;4.30;99.90
9225;DHT22;4647;48.072;11.616;2022-12-07T12:43:43;4.10;99.90
9225;DHT22;4647;48.072;11.616;2022-12-07T12:46:37;4.10;99.90
9225;DHT22;4647;48.072;11.616;2022-12-07T12:55:43;4.10;99.90
9225;DHT22;4647;48.072;11.616;2022-12-07T12:58:39;4.20;99.90
9225;DHT22;4647;48.072;11.616;2022-12-07T13:01:33;4.30;99.90
9225;DHT22;4647;48.072;11.616;2022-12-07T13:04:17;4.30;99.90
9225;DHT22;4647;48.072;11.616;2022-12-07T13:06:45;4.50;99.90
9225;DHT22;4647;48.072;11.616;2022-12-07T13:09:20;4.40;99.90
9225;DHT22;4647;48.072;11.616;2022-12-07T13:11:49;4.40;99.90
9225;DHT22;4647;48.072;11.616;2022-12-07T13:14:43;4.30;99.90
9225;DHT22;4647;48.072;11.616;2022-12-07T13:20:48;4.10;99.90
9225;DHT22;4647;48.072;11.616;2022-12-07T13:23:19;4.10;99.90
9225;DHT22;4647;48.072;11.616;2022-12-07T13:25:53;4.10;99.90
9225;DHT22;4647;48.072;11.616;2022-12-07T13:28:22;4.20;99.90
9225;DHT22;4647;48.072;11.616;2022-12-07T13:31:13;4.10;99.90
9225;DHT22;4647;48.072;11.616;2022-12-07T13:33:43;4.10;99.90
9225;DHT22;4647;48.072;11.616;2022-12-07T13:36:19;4.10;99.90
9225;DHT22;4647;48.072;11.616;2022-12-07T13:38:52;4.20;99.90
9225;DHT22;4647;48.072;11.616;2022-12-07T13:41:20;4.30;99.90
9225;DHT22;4647;48.072;11.616;2022-12-07T13:43:54;4.30;99.90
9225;DHT22;4647;48.072;11.616;2022-12-07T13:46:30;4.40;99.90
9225;DHT22;4647;48.072;11.616;2022-12-07T13:49:00;4.50;99.90
9225;DHT22;4647;48.072;11.616;2022-12-07T13:51:28;4.50;99.90
9225;DHT22;4647;48.072;11.616;2022-12-07T13:53:59;4.60;99.90
9225;DHT22;4647;48.072;11.616;2022-12-07T13:56:34;4.70;99.90
9225;DHT22;4647;48.072;11.616;2022-12-07T13:59:02;4.80;99.90
9225;DHT22;4647;48.072;11.616;2022-12-07T14:01:31;4.90;99.90
9225;DHT22;4647;48.072;11.616;2022-12-07T14:04:17;4.90;99.90
9225;DHT22;4647;48.072;11.616;2022-12-07T14:06:48;5.00;99.90
9225;DHT22;4647;48.072;11.616;2022-12-07T14:09:18;5.10;99.90
9225;DHT22;4647;48.072;11.616;2022-12-07T14:11:47;5.00;99.90
9225;DHT22;4647;48.072;11.616;2022-12-07T14:14:17;4.80;99.90
9225;DHT22;4647;48.072;11.616;2022-12-07T14:16:59;4.60;99.90
9225;DHT22;4647;48.072;11.616;2022-12-07T14:19:42;4.30;99.90
9225;DHT22;4647;48.072;11.616;2022-12-07T14:22:25;4.20;99.90
9225;DHT22;4647;48.072;11.616;2022-12-07T14:24:59;4.10;99.90
9225;DHT22;4647;48.072;11.616;2022-12-07T14:27:31;4.00;99.90
9225;DHT22;4647;48.072;11.616;2022-12-07T14:29:59;4.00;99.90
9225;DHT22;4647;48.072;11.616;2022-12-07T14:32:29;4.00;99.90
9225;DHT22;4647;48.072;11.616;2022-12-07T14:34:58;4.00;99.90
9225;DHT22;4647;48.072;11.616;2022-12-07T14:37:26;4.00;99.90
9225;DHT22;4647;48.072;11.616;2022-12-07T14:39:54;4.00;99.90
9225;DHT22;4647;48.072;11.616;2022-12-07T14:42:22;4.00;99.90
9225;DHT22;4647;48.072;11.616;2022-12-07T14:44:50;3.80;99.90
9225;DHT22;4647;48.072;11.616;2022-12-07T14:47:17;3.70;99.90
9225;DHT22;4647;48.072;11.616;2022-12-07T14:49:45;3.50;99.90
9225;DHT22;4647;48.072;11.616;2022-12-07T14:52:15;3.30;99.90
9225;DHT22;4647;48.072;11.616;2022-12-07T14:54:43;3.00;99.90
9225;DHT22;4647;48.072;11.616;2022-12-07T14:57:10;2.90;99.90
9225;DHT22;4647;48.072;11.616;2022-12-07T14:59:37;2.60;99.90
9225;DHT22;4647;48.072;11.616;2022-12-07T15:02:05;2.40;99.90
9225;DHT22;4647;48.072;11.616;2022-12-07T15:04:32;2.30;99.90
9225;DHT22;4647;48.072;11.616;2022-12-07T15:07:02;2.10;99.90
9225;DHT22;4647;48.072;11.616;2022-12-07T15:09:30;1.90;99.90
9225;DHT22;4647;48.072;11.616;2022-12-07T15:11:56;1.80;99.90
9225;DHT22;4647;48.072;11.616;2022-12-07T15:14:23;1.70;99.90
9225;DHT22;4647;48.072;11.616;2022-12-07T15:16:50;1.60;99.90
9225;DHT22;4647;48.072;11.616;2022-12-07T15:19:18;1.50;99.90
9225;DHT22;4647;48.072;11.616;2022-12-07T15:21:48;1.40;99.90
9225;DHT22;4647;48.072;11.616;2022-12-07T15:24:17;1.20;99.90
9225;DHT22;4647;48.072;11.616;2022-12-07T15:26:43;1.10;99.90
9225;DHT22;4647;48.072;11.616;2022-12-07T15:29:10;1.00;99.90
9225;DHT22;4647;48.072;11.616;2022-12-07T15:31:40;0.90;99.90
9225;DHT22;4647;48.072;11.616;2022-12-07T15:34:07;0.80;99.90
9225;DHT22;4647;48.072;11.616;2022-12-07T15:36:34;0.80;99.90
9225;DHT22;4647;48.072;11.616;2022-12-07T15:39:02;0.80;99.90
9225;DHT22;4647;48.072;11.616;2022-12-07T15:41:31;0.70;99.90
9225;DHT22;4647;48.072;11.616;2022-12-07T15:43:58;0.60;99.90
9225;DHT22;4647;48.072;11.616;2022-12-07T15:46:42;0.60;99.90
9225;DHT22;4647;48.072;11.616;2022-12-07T15:49:13;0.50;99.90
9225;DHT22;4647;48.072;11.616;2022-12-07T15:51:41;0.60;99.90
9225;DHT22;4647;48.072;11.616;2022-12-07T15:54:13;0.50;99.90
9225;DHT22;4647;48.072;11.616;2022-12-07T15:56:41;0.40;99.90
9225;DHT22;4647;48.072;11.616;2022-12-07T15:59:12;0.40;99.90
9225;DHT22;4647;48.072;11.616;2022-12-07T16:01:39;0.30;99.90
9225;DHT22;4647;48.072;11.616;2022-12-07T16:04:05;0.30;99.90
9225;DHT22;4647;48.072;11.616;2022-12-07T16:06:32;0.30;99.90
9225;DHT22;4647;48.072;11.616;2022-12-07T16:08:59;0.20;99.90
9225;DHT22;4647;48.072;11.616;2022-12-07T16:11:26;0.30;99.90
9225;DHT22;4647;48.072;11.616;2022-12-07T16:13:55;0.30;99.90
9225;DHT22;4647;48.072;11.616;2022-12-07T16:16:22;0.30;99.90
9225;DHT22;4647;48.072;11.616;2022-12-07T16:18:49;0.20;99.90
9225;DHT22;4647;48.072;11.616;2022-12-07T16:21:17;0.10;99.90
9225;DHT22;4647;48.072;11.616;2022-12-07T16:23:44;0.10;99.90
9225;DHT22;4647;48.072;11.616;2022-12-07T16:26:13;0.20;99.90
9225;DHT22;4647;48.072;11.616;2022-12-07T16:28:41;0.10;99.90
9225;DHT22;4647;48.072;11.616;2022-12-07T16:31:11;0.10;99.90
9225;DHT22;4647;48.072;11.616;2022-12-07T16:33:39;0.10;99.90
9225;DHT22;4647;48.072;11.616;2022-12-07T16:36:09;0.20;99.90
9225;DHT22;4647;48.072;11.616;2022-12-07T16:38:36;0.20;99.90
9225;DHT22;4647;48.072;11.616;2022-12-07T16:41:04;0.20;99.90
9225;DHT22;4647;48.072;11.616;2022-12-07T16:43:32;0.20;99.90
9225;DHT22;4647;48.072;11.616;2022-12-07T16:45:59;0.30;99.90